createdAt,value
2018-06-22T00:04:18.622Z,12.40
2018-06-22T00:09:21.646Z,12.30
2018-06-22T00:14:24.643Z,12.20
2018-06-22T00:19:27.612Z,12.20
2018-06-22T00:24:30.620Z,12.00
2018-06-22T00:29:33.613Z,12.00
2018-06-22T00:34:36.570Z,12.00
2018-06-22T00:39:39.635Z,12.00
2018-06-22T00:44:42.572Z,12.20
2018-06-22T00:49:45.573Z,12.30
2018-06-22T00:54:48.519Z,12.30
2018-06-22T00:59:51.488Z,12.30
2018-06-22T01:04:54.480Z,12.30
2018-06-22T01:09:57.735Z,12.30
2018-06-22T01:15:00.697Z,12.30
2018-06-22T01:25:06.600Z,12.10
2018-06-22T01:30:09.531Z,12.10
2018-06-22T01:35:12.515Z,12.10
2018-06-22T01:40:15.545Z,12.00
2018-06-22T01:45:18.579Z,11.90
2018-06-22T01:50:21.592Z,11.80
2018-06-22T01:55:25.184Z,11.70
2018-06-22T02:00:29.015Z,11.60
2018-06-22T02:05:32.161Z,11.50
2018-06-22T02:10:35.210Z,11.40
2018-06-22T02:15:38.210Z,11.50
2018-06-22T02:20:41.188Z,11.50
2018-06-22T02:25:44.164Z,11.50
2018-06-22T02:30:47.142Z,11.30
2018-06-22T02:35:50.454Z,11.30
2018-06-22T02:40:53.808Z,11.20
2018-06-22T02:45:56.852Z,11.20
2018-06-22T02:50:59.999Z,11.20
2018-06-22T02:56:02.999Z,11.20
2018-06-22T03:01:06.932Z,11.20
2018-06-22T03:06:11.225Z,11.20
2018-06-22T03:11:14.192Z,11.10
2018-06-22T03:16:17.188Z,11.20
2018-06-22T03:21:20.176Z,11.20
2018-06-22T03:26:23.220Z,11.20
2018-06-22T03:31:26.220Z,11.10
2018-06-22T03:36:29.201Z,11.10
2018-06-22T03:41:32.179Z,11.10
2018-06-22T03:46:35.443Z,11.30
2018-06-22T03:51:38.416Z,11.30
2018-06-22T03:56:41.444Z,11.30
2018-06-22T04:01:44.400Z,11.40
2018-06-22T04:06:47.415Z,11.60
2018-06-22T04:11:50.689Z,11.90
2018-06-22T04:16:53.707Z,12.30
2018-06-22T04:21:56.717Z,13.10
2018-06-22T04:26:59.697Z,14.60
2018-06-22T04:32:02.715Z,15.70
2018-06-22T04:37:05.783Z,16.80
2018-06-22T04:42:09.052Z,16.70
2018-06-22T04:47:12.065Z,17.70
2018-06-22T04:52:15.069Z,18.90
2018-06-22T04:57:18.064Z,19.70
2018-06-22T05:02:21.136Z,20.90
2018-06-22T05:07:24.127Z,20.90
2018-06-22T05:12:27.344Z,22.00
2018-06-22T05:17:30.870Z,21.90
2018-06-22T05:22:33.861Z,21.60
2018-06-22T05:27:37.371Z,21.30
2018-06-22T05:32:40.349Z,20.90
2018-06-22T05:37:43.355Z,20.40
2018-06-22T05:42:46.381Z,20.60
2018-06-22T05:47:49.357Z,20.20
2018-06-22T05:52:52.372Z,19.50
2018-06-22T05:57:55.382Z,19.50
2018-06-22T06:02:58.420Z,20.40
2018-06-22T06:08:01.450Z,20.30
2018-06-22T06:13:04.694Z,21.30
2018-06-22T06:18:07.685Z,21.50
2018-06-22T06:23:10.740Z,19.70
2018-06-22T06:28:13.767Z,17.10
2018-06-22T06:33:16.816Z,15.90
2018-06-22T06:38:19.817Z,15.60
2018-06-22T06:43:22.784Z,15.70
2018-06-22T06:48:25.797Z,15.50
2018-06-22T06:53:28.911Z,15.80
2018-06-22T06:58:31.924Z,15.70
2018-06-22T07:03:34.927Z,15.60
2018-06-22T07:08:38.133Z,15.60
2018-06-22T07:13:41.236Z,15.80
2018-06-22T07:18:44.294Z,16.00
2018-06-22T07:23:47.238Z,16.30
2018-06-22T07:28:50.309Z,16.10
2018-06-22T07:33:53.378Z,15.70
2018-06-22T07:38:56.411Z,15.60
2018-06-22T07:43:59.500Z,15.40
2018-06-22T07:49:02.440Z,15.10
2018-06-22T07:54:05.521Z,15.10
2018-06-22T07:59:08.717Z,15.30
2018-06-22T08:04:11.791Z,15.60
2018-06-22T08:09:14.836Z,15.30
2018-06-22T08:14:17.813Z,15.50
2018-06-22T08:19:21.348Z,15.60
2018-06-22T08:24:24.812Z,15.80
2018-06-22T08:29:27.865Z,16.10
2018-06-22T08:34:31.028Z,16.30
2018-06-22T08:44:37.198Z,15.70
2018-06-22T08:49:40.232Z,15.60
2018-06-22T08:54:43.287Z,15.40
2018-06-22T08:59:46.308Z,15.30
2018-06-22T09:04:49.369Z,15.50
2018-06-22T09:14:55.344Z,15.60
2018-06-22T09:19:59.111Z,16.00
2018-06-22T09:25:02.154Z,16.10
2018-06-22T09:30:05.488Z,16.10
2018-06-22T09:35:08.598Z,15.90
2018-06-22T09:40:11.628Z,15.90
2018-06-22T09:45:14.667Z,15.90
2018-06-22T09:50:17.814Z,16.20
2018-06-22T09:55:20.968Z,16.40
2018-06-22T10:00:24.012Z,15.90
2018-06-22T10:05:27.048Z,15.90
2018-06-22T10:10:30.037Z,16.00
2018-06-22T10:15:33.166Z,16.10
2018-06-22T10:20:36.175Z,16.20
2018-06-22T10:25:39.520Z,16.10
2018-06-22T10:30:42.536Z,16.10
2018-06-22T10:35:45.575Z,16.10
2018-06-22T10:40:48.638Z,16.40
2018-06-22T10:45:51.671Z,16.70
2018-06-22T10:50:54.780Z,16.90
2018-06-22T10:55:57.881Z,17.70
2018-06-22T11:01:01.166Z,18.00
2018-06-22T11:06:04.198Z,18.10
2018-06-22T11:11:07.260Z,18.30
2018-06-22T11:16:10.300Z,18.00
2018-06-22T11:21:13.574Z,17.40
2018-06-22T11:26:16.901Z,17.90
2018-06-22T11:31:20.313Z,18.50
2018-06-22T11:36:23.399Z,18.20
2018-06-22T11:41:26.518Z,18.60
2018-06-22T11:46:29.516Z,18.80
2018-06-22T11:51:32.592Z,19.10
2018-06-22T11:56:35.636Z,19.60
2018-06-22T12:01:38.671Z,19.70
2018-06-22T12:06:41.697Z,19.70
2018-06-22T12:16:47.755Z,18.60
2018-06-22T12:21:50.896Z,18.50
2018-06-22T12:26:53.917Z,17.90
2018-06-22T12:31:57.907Z,18.00
2018-06-22T12:37:00.944Z,18.20
2018-06-22T12:42:04.071Z,18.80
2018-06-22T12:47:07.159Z,19.00
2018-06-22T12:52:10.208Z,18.80
2018-06-22T12:57:13.284Z,19.40
2018-06-22T13:02:16.450Z,19.20
2018-06-22T13:07:19.513Z,18.40
2018-06-22T13:12:22.638Z,18.40
2018-06-22T13:17:25.898Z,19.40
2018-06-22T13:27:32.000Z,19.00
2018-06-22T13:32:35.045Z,19.20
2018-06-22T13:37:38.416Z,18.80
2018-06-22T13:42:41.504Z,18.70
2018-06-22T13:47:44.547Z,19.00
2018-06-22T13:52:47.707Z,18.80
2018-06-22T13:57:50.759Z,18.90
2018-06-22T14:02:53.761Z,19.70
2018-06-22T14:07:56.880Z,18.40
2018-06-22T14:12:59.992Z,18.90
2018-06-22T14:18:03.220Z,18.90
2018-06-22T14:23:06.231Z,19.10
2018-06-22T14:28:09.523Z,19.10
2018-06-22T14:33:12.685Z,19.10
2018-06-22T14:38:16.059Z,18.50
2018-06-22T14:43:19.491Z,18.40
2018-06-22T14:48:22.588Z,18.90
2018-06-22T14:53:31.413Z,19.20
2018-06-22T14:58:40.042Z,20.10
2018-06-22T15:03:48.685Z,20.40
2018-06-22T15:08:51.725Z,20.20
2018-06-22T15:13:54.741Z,19.90
2018-06-22T15:18:57.973Z,19.70
2018-06-22T15:24:01.019Z,19.70
2018-06-22T15:29:04.356Z,19.60
2018-06-22T15:34:13.152Z,19.10
2018-06-22T15:39:21.973Z,19.10
2018-06-22T15:44:32.616Z,19.60
2018-06-22T15:49:41.761Z,20.10
2018-06-22T15:54:50.533Z,19.70
2018-06-22T15:59:53.651Z,19.50
2018-06-22T16:04:56.866Z,19.60
2018-06-22T16:10:01.125Z,19.60
2018-06-22T16:15:13.771Z,19.30
2018-06-22T16:20:22.548Z,18.60
2018-06-22T16:25:31.308Z,18.10
2018-06-22T16:30:34.343Z,18.10
2018-06-22T16:35:37.375Z,18.70
2018-06-22T16:40:40.419Z,18.90
2018-06-22T16:45:43.542Z,18.50
2018-06-22T16:50:46.773Z,18.40
2018-06-22T16:55:49.771Z,18.70
2018-06-22T17:00:52.900Z,19.40
2018-06-22T17:05:56.225Z,18.90
2018-06-22T17:11:04.832Z,18.90
2018-06-22T17:16:13.708Z,18.00
2018-06-22T17:21:17.041Z,17.50
2018-06-22T17:26:20.316Z,17.20
2018-06-22T17:31:23.618Z,17.20
2018-06-22T17:36:26.711Z,17.50
2018-06-22T17:41:29.910Z,17.50
2018-06-22T17:46:33.105Z,17.80
2018-06-22T17:51:36.141Z,17.60
2018-06-22T17:56:39.553Z,17.50
2018-06-22T18:01:48.425Z,17.50
2018-06-22T18:06:57.201Z,17.40
2018-06-22T18:12:06.090Z,17.40
2018-06-22T18:22:12.393Z,17.70
2018-06-22T18:27:15.531Z,17.60
2018-06-22T18:32:18.624Z,17.60
2018-06-22T18:37:21.863Z,17.60
2018-06-22T18:42:24.875Z,17.60
2018-06-22T18:47:27.930Z,17.60
2018-06-22T18:52:36.771Z,17.50
2018-06-22T18:57:45.527Z,17.40
2018-06-22T19:02:54.443Z,17.30
2018-06-22T19:07:57.560Z,17.20
2018-06-22T19:13:00.750Z,17.10
2018-06-22T19:18:03.809Z,17.10
2018-06-22T19:23:06.956Z,17.00
2018-06-22T19:28:10.045Z,16.90
2018-06-22T19:33:13.141Z,16.80
2018-06-22T19:38:16.274Z,16.70
2018-06-22T19:43:25.094Z,16.70
2018-06-22T19:48:33.944Z,16.60
2018-06-22T19:53:42.627Z,16.50
2018-06-22T19:58:45.888Z,16.30
2018-06-22T20:03:49.119Z,16.20
2018-06-22T20:08:52.496Z,16.20
2018-06-22T20:13:55.846Z,16.00
2018-06-22T20:18:59.147Z,16.00
2018-06-22T20:24:02.372Z,15.80
2018-06-22T20:29:05.532Z,15.80
2018-06-22T20:34:14.553Z,15.80
2018-06-22T20:39:23.335Z,15.60
2018-06-22T20:44:32.315Z,15.50
2018-06-22T20:49:41.142Z,15.40
2018-06-22T20:54:44.354Z,15.20
2018-06-22T20:59:47.541Z,15.20
2018-06-22T21:04:50.770Z,15.10
2018-06-22T21:09:54.071Z,15.00
2018-06-22T21:14:57.073Z,14.90
2018-06-22T21:20:00.291Z,14.70
2018-06-22T21:25:03.741Z,14.70
2018-06-22T21:30:12.358Z,14.70
2018-06-22T21:35:21.039Z,14.60
2018-06-22T21:40:24.144Z,14.40
2018-06-22T21:45:27.421Z,14.10
2018-06-22T21:50:30.551Z,13.70
2018-06-22T21:55:33.564Z,13.60
2018-06-22T22:00:36.874Z,13.50
2018-06-22T22:05:40.144Z,13.60
2018-06-22T22:10:48.826Z,13.70
2018-06-22T22:15:52.910Z,13.80
2018-06-22T22:20:56.860Z,13.80
2018-06-22T22:26:01.067Z,13.90
2018-06-22T22:31:05.115Z,13.80
2018-06-22T22:36:09.136Z,13.80
2018-06-22T22:41:13.119Z,13.80
2018-06-22T22:51:20.425Z,13.70
2018-06-22T22:56:24.311Z,13.40
2018-06-22T23:01:28.076Z,13.00
2018-06-22T23:06:32.516Z,12.70
2018-06-22T23:11:36.379Z,12.50
2018-06-22T23:16:40.273Z,12.30
2018-06-22T23:21:43.977Z,12.50
2018-06-22T23:26:48.111Z,12.50
2018-06-22T23:31:52.417Z,12.30
2018-06-22T23:36:56.367Z,12.40
2018-06-22T23:42:00.365Z,12.30
2018-06-22T23:47:04.312Z,12.30
2018-06-22T23:52:08.149Z,12.40
2018-06-22T23:57:12.158Z,12.20
